Kitzingen, Germany

12:39 AM CEST on September 24, 2014 (GMT +0200)
IWRZBURG2 | Change Station
CLOSE
Current Station
Personal Weather Station
Location: Würzburg, WüRZBURG
Elevation: 971 ft
Nearby Weather Stations

Elev 971 ft 49.75 °N, 9.96 °E | Updated 36 seconds ago

Partly Cloudy
Partly Cloudy
43.3 °F
Feels Like 43 °F
N
0.3
Wind Variable Wind from SW
Gusts 2.2 mph

Today
High -- | Low -- °F
--% Chance of Precip.
Yesterday
High -- | Low -- °F
Precip. -- in
7:08 AM 7:13 PM
Waning Crescent, 0% visible
Pressure 30.09 in
Visibility 6.2 miles
Clouds Few 15000 ft
Windchill 43 °F
Dew Point 42 °F
Humidity 95%
Rainfall 0.00 in
Snow Depth Not available.
UV 0.0 out of 12
Pollen Not available.
Air Quality Not available.
Flu Activity Not available.
METAR ETHN 232220Z 10004KT 9999 FEW150 06/04 Q1019 BLU+

More Conditions Fewer Conditions

Pressure 30.09 in
Visibility 6.2 miles
Clouds Few 15000 ft
Windchill 43 °F
Dew Point 42 °F
Humidity 95%
Rainfall 0.00 in
Snow Depth Not available.
UV 0.0 out of 12
Pollen Not available.
Air Quality Not available.
Flu Activity Not available.
METAR ETHN 232220Z 10004KT 9999 FEW150 06/04 Q1019 BLU+

More Conditions Fewer Conditions

10-Day Weather Forecast

Almanac

Astronomy

Sep. 24, 2014 Rise Set
Actual Time 7:08 AM CEST 7:13 PM CEST
Civil Twilight 6:36 AM CEST 7:45 PM CEST
Nautical Twilight 5:58 AM CEST 8:23 PM CEST
Astronomical Twilight 5:19 AM CEST 9:01 PM CEST
Moon 7:15 AM CEST (9/24) 7:09 PM CEST (9/24)
Length of Visible Light 13h 09m
Length of Day
12h 05m
Tomorrow will be 3m 41s shorter.
Waning Crescent, 0% of the Moon is Illuminated
Sep 23
Waning Crescent
Sep 24
New
Oct 1
First Quarter
Oct 8
Full
Oct 15
Last Quarter

Yesterday's Extremes

Country Highs Country Lows

Community

WunderPhotos

Upload Photos

1,755,810 photos uploaded!

WunderBlogs® & News

Nearby

Snow Depth

Not available.

Earthquake Activity

City Distance Mag. Time & Date
No recent earthquake activity has been reported nearby.
Minimum magnitude displayed is 2.5.

Coastal Water Temperatures

Place Temperature
No Stations Reporting

Nearby Weather Stations